createdAt,value
2024-01-21T00:01:53.278Z,99.90
2024-01-21T00:04:21.806Z,99.90
2024-01-21T00:06:50.707Z,99.90
2024-01-21T00:09:19.084Z,99.90
2024-01-21T00:11:48.993Z,99.90
2024-01-21T00:14:17.372Z,99.90
2024-01-21T00:16:45.725Z,99.90
2024-01-21T00:19:14.245Z,99.90
2024-01-21T00:21:42.935Z,99.90
2024-01-21T00:24:11.361Z,99.90
2024-01-21T00:26:41.296Z,99.90
2024-01-21T00:29:11.239Z,99.90
2024-01-21T00:31:39.735Z,99.90
2024-01-21T00:34:08.121Z,99.90
2024-01-21T00:36:36.531Z,99.90
2024-01-21T00:39:05.051Z,99.90
2024-01-21T00:41:33.530Z,99.90
2024-01-21T00:44:01.922Z,99.90
2024-01-21T00:46:31.665Z,99.90
2024-01-21T00:49:01.217Z,99.90
2024-01-21T00:51:29.811Z,99.90
2024-01-21T00:53:58.285Z,99.90
2024-01-21T00:56:26.643Z,99.90
2024-01-21T00:58:54.946Z,99.90
2024-01-21T01:01:23.400Z,99.90
2024-01-21T01:03:53.264Z,99.90
2024-01-21T01:06:21.868Z,99.90
2024-01-21T01:08:50.252Z,99.90
2024-01-21T01:11:21.956Z,99.90
2024-01-21T01:13:50.355Z,99.90
2024-01-21T01:16:18.890Z,99.90
2024-01-21T01:18:47.742Z,99.90
2024-01-21T01:21:17.735Z,99.90
2024-01-21T01:23:46.371Z,99.90
2024-01-21T01:26:14.861Z,99.90
2024-01-21T01:28:44.965Z,99.90
2024-01-21T01:31:18.799Z,99.90
2024-01-21T01:33:48.089Z,99.90
2024-01-21T01:36:18.097Z,99.90
2024-01-21T01:38:46.786Z,99.90
2024-01-21T01:41:15.191Z,99.90
2024-01-21T01:43:43.679Z,99.90
2024-01-21T01:46:13.192Z,99.90
2024-01-21T01:48:41.791Z,99.90
2024-01-21T01:51:10.830Z,99.90
2024-01-21T01:53:40.696Z,99.90
2024-01-21T01:56:09.881Z,99.90
2024-01-21T01:58:40.708Z,99.90
2024-01-21T02:01:09.864Z,99.90
2024-01-21T02:03:38.473Z,99.90
2024-01-21T02:06:08.197Z,99.90
2024-01-21T02:08:36.708Z,99.90
2024-01-21T02:11:06.854Z,99.90
2024-01-21T02:13:35.546Z,99.90
2024-01-21T02:16:04.684Z,99.90
2024-01-21T02:18:34.583Z,99.90
2024-01-21T02:21:03.281Z,99.90
2024-01-21T02:23:33.164Z,99.90
2024-01-21T02:26:01.522Z,99.90
2024-01-21T02:28:29.909Z,99.90
2024-01-21T02:30:58.576Z,99.90
2024-01-21T02:33:27.666Z,99.90
2024-01-21T02:35:56.232Z,99.90
2024-01-21T02:38:24.738Z,99.90
2024-01-21T02:40:54.539Z,99.90
2024-01-21T02:43:23.002Z,99.90
2024-01-21T02:45:51.501Z,99.90
2024-01-21T02:48:20.111Z,99.90
2024-01-21T02:50:48.587Z,99.90
2024-01-21T02:53:17.349Z,99.90
2024-01-21T02:55:45.770Z,99.90
2024-01-21T02:58:15.523Z,99.90
2024-01-21T03:00:44.096Z,99.90
2024-01-21T03:03:12.837Z,99.90
2024-01-21T03:05:41.226Z,99.90
2024-01-21T03:08:10.503Z,99.90
2024-01-21T03:10:38.933Z,99.90
2024-01-21T03:13:08.460Z,99.90
2024-01-21T03:15:38.305Z,99.90
2024-01-21T03:18:07.042Z,99.90
2024-01-21T03:20:35.484Z,99.90
2024-01-21T03:23:04.041Z,99.90
2024-01-21T03:25:32.486Z,99.90
2024-01-21T03:28:01.048Z,99.90
2024-01-21T03:30:29.652Z,99.90
2024-01-21T03:32:59.889Z,99.90
2024-01-21T03:35:28.402Z,99.90
2024-01-21T03:37:56.979Z,99.90
2024-01-21T03:40:25.418Z,99.90
2024-01-21T03:42:53.839Z,99.90
2024-01-21T03:45:22.351Z,99.90
2024-01-21T03:47:50.853Z,99.90
2024-01-21T03:50:21.743Z,99.90
2024-01-21T03:52:50.422Z,99.90
2024-01-21T03:55:19.957Z,99.90
2024-01-21T03:57:49.028Z,99.90
2024-01-21T04:00:18.466Z,99.90
2024-01-21T04:02:46.922Z,99.90
2024-01-21T04:05:15.532Z,99.90
2024-01-21T04:07:45.459Z,99.90
2024-01-21T04:10:13.833Z,99.90
2024-01-21T04:12:42.250Z,99.90
2024-01-21T04:15:10.934Z,99.90
2024-01-21T04:17:40.495Z,99.90
2024-01-21T04:20:10.471Z,99.90
2024-01-21T04:22:38.873Z,99.90
2024-01-21T04:25:09.522Z,99.90
2024-01-21T04:27:38.012Z,99.90
2024-01-21T04:30:07.755Z,99.90
2024-01-21T04:32:36.215Z,99.90
2024-01-21T04:35:04.915Z,99.90
2024-01-21T04:37:33.368Z,99.90
2024-01-21T04:40:01.814Z,99.90
2024-01-21T04:42:31.688Z,99.90
2024-01-21T04:45:00.510Z,99.90
2024-01-21T04:47:28.992Z,99.90
2024-01-21T04:49:57.433Z,99.90
2024-01-21T04:52:25.814Z,99.90
2024-01-21T04:54:54.282Z,99.90
2024-01-21T04:57:23.034Z,99.90
2024-01-21T04:59:53.008Z,99.90
2024-01-21T05:02:21.434Z,99.90
2024-01-21T05:04:49.862Z,99.90
2024-01-21T05:07:18.323Z,99.90
2024-01-21T05:09:46.804Z,99.90
2024-01-21T05:12:15.252Z,99.90
2024-01-21T05:14:43.712Z,99.90
2024-01-21T05:17:13.819Z,99.90
2024-01-21T05:19:42.661Z,99.90
2024-01-21T05:22:11.374Z,99.90
2024-01-21T05:24:39.841Z,99.90
2024-01-21T05:27:08.279Z,99.90
2024-01-21T05:29:38.229Z,99.90
2024-01-21T05:32:07.190Z,99.90
2024-01-21T05:34:36.997Z,99.90
2024-01-21T05:37:05.796Z,99.90
2024-01-21T05:39:34.535Z,99.90
2024-01-21T05:42:04.216Z,99.90
2024-01-21T05:44:32.808Z,99.90
2024-01-21T05:47:01.266Z,99.90
2024-01-21T05:49:30.900Z,99.90
2024-01-21T05:52:00.906Z,99.90
2024-01-21T05:54:29.438Z,99.90
2024-01-21T05:56:57.909Z,99.90
2024-01-21T05:59:26.320Z,99.90
2024-01-21T06:01:55.585Z,99.90
2024-01-21T06:04:25.108Z,99.90
2024-01-21T06:06:54.194Z,99.90
2024-01-21T06:09:24.277Z,99.90
2024-01-21T06:11:53.295Z,99.90
2024-01-21T06:14:21.703Z,99.90
2024-01-21T06:16:50.132Z,99.90
2024-01-21T06:19:18.940Z,99.90
2024-01-21T06:21:47.504Z,99.90
2024-01-21T06:24:18.225Z,99.90
2024-01-21T06:26:48.046Z,99.90
2024-01-21T06:29:16.522Z,99.90
2024-01-21T06:31:44.937Z,99.90
2024-01-21T06:34:13.465Z,99.90
2024-01-21T06:36:42.588Z,99.90
2024-01-21T06:39:11.544Z,99.90
2024-01-21T06:41:40.201Z,99.90
2024-01-21T06:44:10.224Z,99.90
2024-01-21T06:46:38.654Z,99.90
2024-01-21T06:49:07.671Z,99.90
2024-01-21T06:51:44.633Z,99.90
2024-01-21T06:54:13.325Z,99.90
2024-01-21T06:56:41.877Z,99.90
2024-01-21T06:59:13.267Z,99.90
2024-01-21T07:01:42.143Z,99.90
2024-01-21T07:04:10.649Z,99.90
2024-01-21T07:06:39.369Z,99.90
2024-01-21T07:09:09.142Z,99.90
2024-01-21T07:11:37.981Z,99.90
2024-01-21T07:14:07.468Z,99.90
2024-01-21T07:16:38.090Z,99.90
2024-01-21T07:19:06.694Z,99.90
2024-01-21T07:21:35.192Z,99.90
2024-01-21T07:24:03.922Z,99.90
2024-01-21T07:26:32.307Z,99.90
2024-01-21T07:29:00.720Z,99.90
2024-01-21T07:31:29.094Z,99.90
2024-01-21T07:33:59.002Z,99.90
2024-01-21T07:36:27.542Z,99.90
2024-01-21T07:38:56.432Z,99.90
2024-01-21T07:41:24.858Z,99.90
2024-01-21T07:43:53.271Z,99.90
2024-01-21T07:46:21.696Z,99.90
2024-01-21T07:48:50.455Z,99.90
2024-01-21T07:51:21.474Z,99.90
2024-01-21T07:53:52.434Z,99.90
2024-01-21T07:56:21.118Z,99.90
2024-01-21T07:58:49.540Z,99.90
2024-01-21T08:01:22.002Z,99.90
2024-01-21T08:03:50.811Z,99.90
2024-01-21T08:06:21.601Z,99.90
2024-01-21T08:08:50.170Z,99.90
2024-01-21T08:11:18.605Z,99.90
2024-01-21T08:13:47.546Z,99.90
2024-01-21T08:16:16.075Z,99.90
2024-01-21T08:18:45.456Z,99.90
2024-01-21T08:21:14.347Z,99.90
2024-01-21T08:23:44.114Z,99.90
2024-01-21T08:26:13.229Z,99.90
2024-01-21T08:28:41.643Z,99.90
2024-01-21T08:31:10.182Z,99.90
2024-01-21T08:33:38.756Z,99.90
2024-01-21T08:36:07.775Z,99.90
2024-01-21T08:38:39.717Z,99.90
2024-01-21T08:41:09.563Z,99.90
2024-01-21T08:43:38.396Z,99.90
2024-01-21T08:46:07.775Z,99.90
2024-01-21T08:48:36.387Z,99.90
2024-01-21T08:51:06.325Z,99.90
2024-01-21T08:53:34.794Z,99.90
2024-01-21T08:56:03.447Z,99.90
2024-01-21T08:58:33.201Z,99.90
2024-01-21T09:01:02.755Z,99.90
2024-01-21T09:03:31.894Z,99.90
2024-01-21T09:06:01.223Z,99.90
2024-01-21T09:08:29.647Z,99.90
2024-01-21T09:10:58.236Z,99.90
2024-01-21T09:13:27.103Z,99.90
2024-01-21T09:15:58.181Z,99.90
2024-01-21T09:18:26.749Z,99.90
2024-01-21T09:20:55.191Z,99.90
2024-01-21T09:23:23.667Z,99.90
2024-01-21T09:25:52.086Z,99.90
2024-01-21T09:28:20.907Z,99.90
2024-01-21T09:30:49.593Z,99.90
2024-01-21T09:33:21.136Z,99.90
2024-01-21T09:35:51.124Z,99.90
2024-01-21T09:38:22.648Z,99.90
2024-01-21T09:40:58.580Z,99.90
2024-01-21T09:43:29.689Z,99.90
2024-01-21T09:45:59.580Z,99.90
2024-01-21T09:48:29.941Z,99.90
2024-01-21T09:51:01.460Z,99.90
2024-01-21T09:53:29.879Z,99.90
2024-01-21T09:56:00.937Z,99.90
2024-01-21T09:58:31.111Z,99.90
2024-01-21T10:00:59.713Z,99.90
2024-01-21T10:03:29.566Z,99.90
2024-01-21T10:05:59.163Z,99.90
2024-01-21T10:08:29.018Z,99.90
2024-01-21T10:10:58.335Z,99.90
2024-01-21T10:13:26.651Z,99.90
2024-01-21T10:15:55.218Z,99.90
2024-01-21T10:18:24.069Z,99.90
2024-01-21T10:20:56.223Z,99.90
2024-01-21T10:23:26.014Z,99.90
2024-01-21T10:25:55.489Z,99.90
2024-01-21T10:28:24.530Z,99.90
2024-01-21T10:30:52.939Z,99.90
2024-01-21T10:33:21.463Z,99.90
2024-01-21T10:35:50.523Z,99.90
2024-01-21T10:38:20.719Z,99.90
2024-01-21T10:40:49.594Z,99.90
2024-01-21T10:43:20.949Z,99.90
2024-01-21T10:45:55.101Z,99.90
2024-01-21T10:48:24.397Z,99.90
2024-01-21T10:50:55.407Z,99.90
2024-01-21T10:53:26.058Z,99.90
2024-01-21T10:55:55.469Z,99.90
2024-01-21T10:58:24.629Z,99.90
2024-01-21T11:00:54.335Z,99.90
2024-01-21T11:03:28.167Z,99.90
2024-01-21T11:06:01.556Z,99.90
2024-01-21T11:08:33.292Z,99.90
2024-01-21T11:11:15.646Z,99.90
2024-01-21T11:13:46.422Z,99.90
2024-01-21T11:16:35.359Z,99.90
2024-01-21T11:19:05.996Z,99.90
2024-01-21T11:21:35.746Z,99.90
2024-01-21T11:24:06.959Z,99.90
2024-01-21T11:26:38.900Z,99.90
2024-01-21T11:29:25.269Z,99.90
2024-01-21T11:31:54.208Z,99.90
2024-01-21T11:34:24.152Z,99.90
2024-01-21T11:36:53.011Z,99.90
2024-01-21T11:39:25.167Z,99.90
2024-01-21T11:41:54.131Z,99.90
2024-01-21T11:44:28.081Z,99.90
2024-01-21T11:46:59.741Z,99.90
2024-01-21T11:49:28.469Z,99.90
2024-01-21T11:51:58.486Z,99.90
2024-01-21T11:54:29.216Z,99.90
2024-01-21T11:56:57.814Z,99.90
2024-01-21T11:59:26.641Z,99.90
2024-01-21T12:01:59.675Z,99.90
2024-01-21T12:04:30.252Z,99.90
2024-01-21T12:07:00.085Z,99.90
2024-01-21T12:09:30.920Z,99.90
2024-01-21T12:12:01.171Z,99.90
2024-01-21T12:14:29.694Z,99.90
2024-01-21T12:16:58.188Z,99.90
2024-01-21T12:19:29.164Z,99.90
2024-01-21T12:21:57.760Z,99.90
2024-01-21T12:24:26.413Z,99.90
2024-01-21T12:26:57.327Z,98.70
2024-01-21T12:29:26.681Z,94.80
2024-01-21T12:31:55.284Z,96.60
2024-01-21T12:34:24.705Z,96.10
2024-01-21T12:36:54.924Z,95.10
2024-01-21T12:39:24.959Z,95.20
2024-01-21T12:41:53.680Z,94.40
2024-01-21T12:44:23.665Z,93.10
2024-01-21T12:46:52.404Z,90.00
2024-01-21T12:49:20.908Z,86.90
2024-01-21T12:51:49.385Z,86.50
2024-01-21T12:54:17.925Z,89.50
2024-01-21T12:56:46.480Z,90.60
2024-01-21T12:59:15.392Z,91.70
2024-01-21T13:01:46.213Z,93.70
2024-01-21T13:04:14.849Z,94.00
2024-01-21T13:06:43.377Z,94.20
2024-01-21T13:09:11.931Z,92.50
2024-01-21T13:11:40.398Z,90.70
2024-01-21T13:14:10.872Z,88.00
2024-01-21T13:16:40.990Z,84.30
2024-01-21T13:19:11.080Z,81.40
2024-01-21T13:21:40.925Z,82.00
2024-01-21T13:24:10.717Z,82.10
2024-01-21T13:26:42.002Z,81.90
2024-01-21T13:29:26.889Z,81.60
2024-01-21T13:31:55.357Z,83.20
2024-01-21T13:34:25.387Z,84.30
2024-01-21T13:36:54.129Z,85.30
2024-01-21T13:39:26.252Z,86.60
2024-01-21T13:41:54.887Z,89.00
2024-01-21T13:44:23.384Z,90.60
2024-01-21T13:46:53.195Z,91.00
2024-01-21T13:49:21.708Z,86.80
2024-01-21T13:51:51.716Z,84.50
2024-01-21T13:54:20.887Z,83.60
2024-01-21T13:56:53.770Z,77.80
2024-01-21T13:59:22.239Z,77.80
2024-01-21T14:01:57.844Z,75.90
2024-01-21T14:04:34.035Z,73.70
2024-01-21T14:07:04.176Z,71.40
2024-01-21T14:09:33.108Z,68.10
2024-01-21T14:12:01.633Z,62.70
2024-01-21T14:14:30.002Z,59.20
2024-01-21T14:16:58.312Z,55.20
2024-01-21T14:19:26.649Z,54.60
2024-01-21T14:21:55.219Z,50.70
2024-01-21T14:24:28.047Z,46.80
2024-01-21T14:26:56.800Z,42.10
2024-01-21T14:29:29.153Z,40.80
2024-01-21T14:31:58.014Z,39.30
2024-01-21T14:34:26.575Z,35.00
2024-01-21T14:36:55.111Z,31.60
2024-01-21T14:39:25.267Z,29.70
2024-01-21T14:41:53.813Z,29.00
2024-01-21T14:44:22.284Z,30.00
2024-01-21T14:46:50.743Z,30.80
2024-01-21T14:49:19.179Z,32.80
2024-01-21T14:51:48.332Z,33.50
2024-01-21T14:54:16.760Z,33.80
2024-01-21T14:56:46.525Z,34.90
2024-01-21T14:59:14.872Z,33.70
2024-01-21T15:01:43.322Z,34.60
2024-01-21T15:04:12.194Z,35.00
2024-01-21T15:06:40.693Z,35.20
2024-01-21T15:09:09.830Z,35.00
2024-01-21T15:11:40.810Z,35.20
2024-01-21T15:14:31.921Z,35.20
2024-01-21T15:17:00.389Z,35.70
2024-01-21T15:19:28.886Z,37.30
2024-01-21T15:21:57.427Z,37.30
2024-01-21T15:24:25.849Z,37.40
2024-01-21T15:26:54.284Z,36.90
2024-01-21T15:29:25.129Z,37.20
2024-01-21T15:31:53.562Z,38.00
2024-01-21T15:34:22.248Z,39.20
2024-01-21T15:36:51.178Z,40.50
2024-01-21T15:39:20.053Z,42.80
2024-01-21T15:41:48.937Z,44.10
2024-01-21T15:44:17.655Z,46.20
2024-01-21T15:46:47.626Z,47.20
2024-01-21T15:49:16.493Z,48.50
2024-01-21T15:51:46.958Z,50.00
2024-01-21T15:54:17.580Z,51.50
2024-01-21T15:56:46.297Z,52.90
2024-01-21T15:59:14.655Z,53.80
2024-01-21T16:01:43.140Z,55.00
2024-01-21T16:04:13.096Z,56.20
2024-01-21T16:06:41.646Z,57.20
2024-01-21T16:09:10.028Z,58.10
2024-01-21T16:11:38.514Z,59.40
2024-01-21T16:14:06.975Z,60.40
2024-01-21T16:16:35.341Z,61.70
2024-01-21T16:19:04.687Z,63.30
2024-01-21T16:21:34.865Z,64.20
2024-01-21T16:24:03.248Z,65.90
2024-01-21T16:26:32.680Z,67.50
2024-01-21T16:29:01.055Z,69.00
2024-01-21T16:31:29.554Z,70.60
2024-01-21T16:33:58.585Z,72.00
2024-01-21T16:36:27.146Z,73.40
2024-01-21T16:38:56.906Z,75.40
2024-01-21T16:41:25.617Z,76.80
2024-01-21T16:43:53.946Z,78.20
2024-01-21T16:46:22.434Z,79.20
2024-01-21T16:48:51.008Z,80.40
2024-01-21T16:51:19.763Z,81.20
2024-01-21T16:53:48.746Z,81.90
2024-01-21T16:56:18.536Z,82.80
2024-01-21T16:58:47.333Z,83.40
2024-01-21T17:01:18.631Z,84.30
2024-01-21T17:03:47.225Z,85.10
2024-01-21T17:06:15.840Z,85.90
2024-01-21T17:08:44.554Z,87.00
2024-01-21T17:11:21.120Z,87.90
2024-01-21T17:13:50.995Z,88.60
2024-01-21T17:16:19.343Z,89.30
2024-01-21T17:18:51.962Z,89.90
2024-01-21T17:21:20.442Z,90.10
2024-01-21T17:23:49.171Z,90.30
2024-01-21T17:26:17.703Z,90.50
2024-01-21T17:28:47.074Z,90.60
2024-01-21T17:31:16.904Z,90.80
2024-01-21T17:33:47.502Z,90.90
2024-01-21T17:36:17.002Z,91.10
2024-01-21T17:38:45.438Z,91.20
2024-01-21T17:41:13.920Z,91.40
2024-01-21T17:43:42.349Z,91.60
2024-01-21T17:46:15.608Z,91.60
2024-01-21T17:48:46.864Z,91.60
2024-01-21T17:51:15.383Z,91.50
2024-01-21T17:53:44.470Z,91.50
2024-01-21T17:56:15.116Z,91.50
2024-01-21T17:58:43.591Z,91.60
2024-01-21T18:01:12.007Z,91.50
2024-01-21T18:03:40.861Z,91.50
2024-01-21T18:06:10.743Z,91.60
2024-01-21T18:08:39.457Z,91.80
2024-01-21T18:11:07.839Z,91.90
2024-01-21T18:13:36.286Z,92.10
2024-01-21T18:16:05.427Z,92.20
2024-01-21T18:18:33.905Z,92.30
2024-01-21T18:21:02.370Z,92.30
2024-01-21T18:23:33.107Z,92.50
2024-01-21T18:26:01.593Z,92.70
2024-01-21T18:28:30.940Z,92.90
2024-01-21T18:30:59.222Z,93.10
2024-01-21T18:33:28.014Z,93.40
2024-01-21T18:35:56.761Z,93.60
2024-01-21T18:38:25.364Z,94.10
2024-01-21T18:40:55.195Z,93.90
2024-01-21T18:43:24.033Z,94.10
2024-01-21T18:45:53.630Z,94.20
2024-01-21T18:48:22.404Z,94.30
2024-01-21T18:50:50.952Z,94.50
2024-01-21T18:53:19.368Z,94.70
2024-01-21T18:55:48.677Z,94.90
2024-01-21T18:58:27.383Z,95.20
2024-01-21T19:00:56.636Z,95.40
2024-01-21T19:03:27.942Z,95.60
2024-01-21T19:05:56.722Z,95.70
2024-01-21T19:08:25.570Z,95.90
2024-01-21T19:10:54.132Z,96.10
2024-01-21T19:13:23.992Z,96.30
2024-01-21T19:15:52.532Z,96.40
2024-01-21T19:18:21.217Z,96.30
2024-01-21T19:20:50.178Z,96.40
2024-01-21T19:23:18.959Z,96.30
2024-01-21T19:25:47.998Z,96.50
2024-01-21T19:28:16.528Z,96.50
2024-01-21T19:30:46.375Z,96.60
2024-01-21T19:33:14.958Z,96.60
2024-01-21T19:35:43.435Z,96.70
2024-01-21T19:38:11.959Z,96.80
2024-01-21T19:40:42.303Z,96.90
2024-01-21T19:43:10.746Z,97.10
2024-01-21T19:45:39.065Z,97.30
2024-01-21T19:48:09.934Z,97.50
2024-01-21T19:50:38.436Z,97.70
2024-01-21T19:53:07.217Z,97.90
2024-01-21T19:55:35.730Z,98.00
2024-01-21T19:58:06.473Z,98.20
2024-01-21T20:00:35.037Z,98.20
2024-01-21T20:03:03.485Z,98.40
2024-01-21T20:05:33.784Z,98.40
2024-01-21T20:08:04.875Z,98.70
2024-01-21T20:10:33.443Z,98.80
2024-01-21T20:13:01.910Z,98.80
2024-01-21T20:15:30.353Z,99.00
2024-01-21T20:17:59.704Z,99.10
2024-01-21T20:20:34.102Z,99.10
2024-01-21T20:23:02.520Z,99.20
2024-01-21T20:25:32.106Z,99.10
2024-01-21T20:28:00.871Z,98.90
2024-01-21T20:30:30.684Z,98.90
2024-01-21T20:33:00.526Z,98.80
2024-01-21T20:35:29.591Z,98.60
2024-01-21T20:38:01.520Z,98.40
2024-01-21T20:40:30.163Z,98.10
2024-01-21T20:42:58.685Z,98.00
2024-01-21T20:45:27.287Z,97.80
2024-01-21T20:47:57.319Z,97.60
2024-01-21T20:50:25.763Z,97.40
2024-01-21T20:52:56.174Z,97.10
2024-01-21T20:55:30.205Z,97.00
2024-01-21T20:57:58.902Z,96.90
2024-01-21T21:00:27.677Z,97.10
2024-01-21T21:02:56.442Z,97.10
2024-01-21T21:05:29.514Z,97.10
2024-01-21T21:07:59.316Z,97.00
2024-01-21T21:10:29.366Z,96.80
2024-01-21T21:12:58.521Z,96.80
2024-01-21T21:15:27.044Z,96.80
2024-01-21T21:17:55.926Z,96.90
2024-01-21T21:20:24.456Z,96.60
2024-01-21T21:22:53.032Z,96.60
2024-01-21T21:25:21.744Z,96.70
2024-01-21T21:27:52.024Z,96.90
2024-01-21T21:30:20.553Z,97.00
2024-01-21T21:32:49.096Z,97.10
2024-01-21T21:35:19.148Z,97.10
2024-01-21T21:37:54.524Z,97.30
2024-01-21T21:40:23.309Z,97.50
2024-01-21T21:42:53.178Z,97.90
2024-01-21T21:45:23.432Z,98.20
2024-01-21T21:47:52.411Z,98.50
2024-01-21T21:50:23.252Z,98.70
2024-01-21T21:52:56.413Z,98.90
2024-01-21T21:55:29.983Z,99.10
2024-01-21T21:58:00.839Z,99.40
2024-01-21T22:00:29.611Z,99.50
2024-01-21T22:02:58.818Z,99.70
2024-01-21T22:05:27.793Z,99.80
2024-01-21T22:07:56.611Z,99.90
2024-01-21T22:10:27.475Z,99.90
2024-01-21T22:12:56.544Z,99.90
2024-01-21T22:15:26.740Z,99.90
2024-01-21T22:17:56.719Z,99.90
2024-01-21T22:20:25.200Z,99.90
2024-01-21T22:22:53.982Z,99.90
2024-01-21T22:25:22.519Z,99.90
2024-01-21T22:27:51.034Z,99.90
2024-01-21T22:30:19.473Z,99.90
2024-01-21T22:32:49.523Z,99.90
2024-01-21T22:35:18.097Z,99.90
2024-01-21T22:37:47.184Z,99.90
2024-01-21T22:40:15.874Z,99.90
2024-01-21T22:42:47.589Z,99.90
2024-01-21T22:45:16.682Z,99.90
2024-01-21T22:47:45.336Z,99.90
2024-01-21T22:50:16.345Z,99.90
2024-01-21T22:52:44.817Z,99.90
2024-01-21T22:55:14.097Z,99.90
2024-01-21T22:57:42.609Z,99.90
2024-01-21T23:00:16.258Z,99.90
2024-01-21T23:02:44.845Z,99.90
2024-01-21T23:05:13.347Z,99.90
2024-01-21T23:07:43.170Z,99.90
2024-01-21T23:10:12.290Z,99.90
2024-01-21T23:12:41.441Z,99.90
2024-01-21T23:15:10.926Z,99.90
2024-01-21T23:17:39.426Z,99.90
2024-01-21T23:20:09.627Z,99.90
2024-01-21T23:22:38.012Z,99.90
2024-01-21T23:25:08.833Z,99.90
2024-01-21T23:27:37.781Z,99.90
2024-01-21T23:30:08.504Z,99.90
2024-01-21T23:32:37.167Z,99.90
2024-01-21T23:35:07.547Z,99.90
2024-01-21T23:37:35.922Z,99.90
2024-01-21T23:40:04.630Z,99.90
2024-01-21T23:42:34.988Z,99.90
2024-01-21T23:45:03.960Z,99.90
2024-01-21T23:47:32.813Z,99.90
2024-01-21T23:50:01.304Z,99.90
2024-01-21T23:52:29.693Z,99.90
2024-01-21T23:54:58.209Z,99.90
2024-01-21T23:57:26.678Z,99.90
2024-01-21T23:59:56.447Z,99.90
